Time;durP1;ratioP1;P1;durP2;ratioP2;P2;SDS_P1;SDS_P2;PMS_P1;PMS_P2;Temp;Humidity;BMP_temperature;BMP_pressure;BME280_temperature;BME280_humidity;BME280_pressure;Samples;Min_cycle;Max_cycle;Signal;HPM_P1;HPM_P2
2023/06/05 00:01:34;;;;;;;9.97;3.43;;;;;;;14.74;57.94;101364.53;5247077;56;1138923;-76
2023/06/05 00:06:39;;;;;;;8.73;3.23;;;;;;;14.61;58.19;101373.16;5201291;56;1138701;-74
2023/06/05 00:11:45;;;;;;;3.53;2.93;;;;;;;14.37;58.46;101363.95;5141314;57;1138654;-72
2023/06/05 00:16:51;;;;;;;4.97;3.00;;;;;;;14.42;59.18;101360.97;5161328;57;1138690;-72
2023/06/05 00:21:57;;;;;;;4.43;3.50;;;;;;;14.46;59.17;101355.77;5141383;57;1138690;-72
2023/06/05 00:27:02;;;;;;;12.87;3.50;;;;;;;14.54;59.10;101363.11;5198109;56;1138455;-73
2023/06/05 00:32:08;;;;;;;5.60;3.27;;;;;;;14.52;58.74;101362.39;5247365;56;1140992;-68
2023/06/05 00:37:14;;;;;;;5.60;3.40;;;;;;;14.41;58.66;101365.44;5227646;56;1138383;-70
2023/06/05 00:42:19;;;;;;;7.33;3.80;;;;;;;14.36;59.03;101372.91;5222436;56;1138375;-67
2023/06/05 00:47:25;;;;;;;10.82;4.53;;;;;;;14.31;59.04;101371.11;5154992;57;1138914;-73
2023/06/05 00:52:31;;;;;;;6.07;3.80;;;;;;;14.24;59.56;101365.91;5174073;57;1140720;-68
2023/06/05 00:57:39;;;;;;;11.13;3.10;;;;;;;14.23;59.22;101370.86;5153612;57;1138787;-70
2023/06/05 01:02:45;;;;;;;8.20;4.07;;;;;;;14.16;59.31;101368.34;5153434;57;1141013;-71
2023/06/05 01:07:50;;;;;;;4.07;2.97;;;;;;;14.16;59.32;101364.35;5175356;57;1138606;-76
2023/06/05 01:13:06;;;;;;;7.20;3.50;;;;;;;14.15;59.20;101358.66;5156992;57;1138413;-71
2023/06/05 01:18:12;;;;;;;7.23;3.77;;;;;;;14.06;58.91;101358.04;5070907;58;1138773;-69
2023/06/05 01:23:18;;;;;;;5.83;3.17;;;;;;;13.94;59.30;101357.69;5083924;56;1138646;-72
2023/06/05 01:28:28;;;;;;;5.43;3.43;;;;;;;13.75;59.42;101356.11;5103941;57;1138910;-70
2023/06/05 01:33:50;;;;;;;15.57;4.07;;;;;;;13.73;60.31;101362.39;5154565;57;1138616;-70
2023/06/05 01:38:50;;;;;;;9.37;3.87;;;;;;;13.72;60.29;101358.52;5115794;57;1140782;-70
2023/06/05 01:43:57;;;;;;;8.87;3.10;;;;;;;13.75;60.54;101359.59;5190835;56;1138944;-67
2023/06/05 01:49:05;;;;;;;4.57;3.00;;;;;;;13.71;60.44;101362.99;5241203;56;1138412;-69
2023/06/05 01:54:11;;;;;;;6.40;3.20;;;;;;;13.61;60.27;101359.81;5224366;56;1138684;-71
2023/06/05 01:59:16;;;;;;;6.57;3.20;;;;;;;13.53;60.83;101361.74;5240562;56;1139260;-69
2023/06/05 02:04:24;;;;;;;5.97;2.90;;;;;;;13.36;61.42;101359.52;5220326;56;1138922;-73
2023/06/05 02:09:35;;;;;;;6.83;2.83;;;;;;;13.36;61.42;101359.52;5163145;56;1138641;-72
2023/06/05 02:14:37;;;;;;;5.03;2.30;;;;;;;13.30;61.71;101355.98;5173152;57;1139106;-66
2023/06/05 02:19:43;;;;;;;8.77;2.73;;;;;;;13.18;61.86;101357.77;5154058;57;1138788;-75
2023/06/05 02:24:48;;;;;;;10.40;3.07;;;;;;;13.06;62.51;101347.19;5172450;56;1138707;-74
2023/06/05 02:29:54;;;;;;;32.50;5.50;;;;;;;12.97;63.11;101352.23;5261201;56;1141024;-72
2023/06/05 02:35:00;;;;;;;4.67;3.17;;;;;;;12.94;63.91;101345.82;5240954;56;1140726;-69
2023/06/05 02:40:07;;;;;;;9.00;2.90;;;;;;;12.92;64.66;101347.73;5241105;56;1138718;-71
2023/06/05 02:45:14;;;;;;;8.97;3.43;;;;;;;12.77;64.33;101348.02;5257697;56;1138922;-70
2023/06/05 02:50:20;;;;;;;8.93;3.77;;;;;;;12.58;64.48;101348.52;5223183;56;1138727;-75
2023/06/05 02:55:29;;;;;;;3.90;2.92;;;;;;;12.53;65.78;101345.33;5141540;56;1139157;-72
2023/06/05 03:00:37;;;;;;;10.13;3.37;;;;;;;12.52;66.27;101342.34;5160849;56;1138936;-70
2023/06/05 03:05:44;;;;;;;9.53;3.10;;;;;;;12.56;66.81;101345.13;5141080;56;1140741;-69
2023/06/05 03:10:51;;;;;;;7.73;3.20;;;;;;;12.59;66.79;101346.23;5141072;57;1138460;-71
2023/06/05 03:16:01;;;;;;;12.17;3.33;;;;;;;12.52;66.88;101338.36;5160833;57;1138905;-73
2023/06/05 03:21:10;;;;;;;12.63;3.57;;;;;;;12.49;67.50;101345.21;5140881;57;1140751;-74
2023/06/05 03:26:15;;;;;;;6.80;2.87;;;;;;;12.37;67.92;101345.63;5183858;56;1140623;-72
2023/06/05 03:31:21;;;;;;;15.20;4.50;;;;;;;12.13;68.55;101357.48;5174404;56;1138713;-70
2023/06/05 03:36:33;;;;;;;22.13;3.83;;;;;;;12.05;69.51;101355.02;5160819;56;1140756;-75
2023/06/05 03:41:39;;;;;;;13.93;4.47;;;;;;;11.90;70.07;101349.84;5141344;56;1140749;-72
2023/06/05 03:46:46;;;;;;;14.47;4.13;;;;;;;11.86;70.99;101347.50;5173876;56;1140713;-68
2023/06/05 03:51:52;;;;;;;12.70;4.67;;;;;;;11.81;71.20;101350.94;5226834;56;1141008;-71
2023/06/05 03:57:00;;;;;;;15.10;4.73;;;;;;;11.75;72.02;101350.88;5156620;57;1140629;-73
2023/06/05 04:02:07;;;;;;;15.97;4.70;;;;;;;11.75;72.52;101346.90;5156452;57;1140802;-69
2023/06/05 04:07:13;;;;;;;12.47;6.40;;;;;;;11.86;72.97;101340.40;5176174;57;1140784;-69
2023/06/05 04:12:19;;;;;;;12.27;7.60;;;;;;;12.03;73.19;101348.50;5156233;56;1140781;-70
2023/06/05 04:17:26;;;;;;;18.53;7.50;;;;;;;12.26;73.93;101345.52;5156563;57;1140523;-69
2023/06/05 04:22:32;;;;;;;21.00;5.53;;;;;;;12.48;73.20;101338.21;5156730;57;1141048;-70
2023/06/05 04:27:39;;;;;;;18.40;4.07;;;;;;;12.63;72.96;101341.07;5243524;56;1140689;-68
2023/06/05 04:32:53;;;;;;;13.27;4.20;;;;;;;12.86;73.31;101337.56;5165395;56;1140531;-67
2023/06/05 04:37:56;;;;;;;13.00;3.50;;;;;;;12.99;72.78;101340.14;5155841;57;1140746;-70
2023/06/05 04:43:01;;;;;;;22.63;4.20;;;;;;;13.11;73.51;101337.92;5176310;57;1141092;-70
2023/06/05 04:48:08;;;;;;;18.13;3.60;;;;;;;13.27;73.75;101338.98;5149822;57;1140868;-69
2023/06/05 04:53:15;;;;;;;7.07;3.27;;;;;;;13.38;73.93;101334.53;5195493;56;1140553;-72
2023/06/05 04:58:21;;;;;;;12.70;3.33;;;;;;;13.46;74.04;101333.08;5227953;56;1139164;-68
2023/06/05 05:03:29;;;;;;;11.77;3.97;;;;;;;13.59;74.69;101333.86;5247647;56;1140645;-69
2023/06/05 05:08:36;;;;;;;7.17;2.80;;;;;;;13.75;75.18;101330.34;5214504;56;1140621;-71
2023/06/05 05:13:42;;;;;;;10.03;2.67;;;;;;;13.89;75.32;101331.95;5219447;56;1138641;-68
2023/06/05 05:18:48;;;;;;;30.80;4.23;;;;;;;14.06;75.29;101332.77;5239527;56;1140736;-69
2023/06/05 05:23:54;;;;;;;10.50;3.33;;;;;;;14.23;75.37;101330.10;5219655;56;1140834;-68
2023/06/05 05:29:00;;;;;;;8.73;2.90;;;;;;;14.49;76.21;101331.56;5215277;56;1140702;-67
2023/06/05 05:34:05;;;;;;;7.00;4.13;;;;;;;14.79;76.22;101340.20;5161131;57;1138931;-67
2023/06/05 05:39:11;;;;;;;9.00;3.27;;;;;;;15.10;75.84;101336.69;5141495;57;1138882;-73
2023/06/05 05:44:19;;;;;;;6.30;2.30;;;;;;;15.40;75.35;101331.08;5141432;57;1138478;-72
2023/06/05 05:49:24;;;;;;;6.30;2.70;;;;;;;15.71;74.55;101343.52;5141445;57;1138863;-70
2023/06/05 05:54:30;;;;;;;37.50;4.67;;;;;;;16.05;73.07;101339.23;5236988;56;1138577;-71
2023/06/05 05:59:35;;;;;;;11.70;2.67;;;;;;;16.35;71.59;101347.69;5227286;56;1141142;-72
2023/06/05 06:04:43;;;;;;;8.97;3.13;;;;;;;16.65;69.73;101353.52;5056731;58;1140607;-72
2023/06/05 06:09:48;;;;;;;28.87;2.97;;;;;;;16.90;69.04;101346.30;5166284;56;1139018;-71
2023/06/05 06:14:54;;;;;;;12.63;2.60;;;;;;;17.19;65.50;101353.83;5141229;57;1140737;-68
2023/06/05 06:20:00;;;;;;;9.57;2.13;;;;;;;17.44;64.11;101348.37;5141092;57;1140785;-72
2023/06/05 06:25:07;;;;;;;7.40;2.20;;;;;;;17.69;62.80;101354.14;5243017;56;1138939;-74
2023/06/05 06:30:13;;;;;;;2.00;1.40;;;;;;;18.09;56.25;101348.02;5194160;56;1138662;-68
2023/06/05 06:35:19;;;;;;;2.07;1.43;;;;;;;18.09;56.25;101348.02;5141184;57;1138269;-72
2023/06/05 06:40:25;;;;;;;1.97;1.57;;;;;;;18.33;56.82;101356.02;5141509;57;1138645;-74
2023/06/05 06:45:31;;;;;;;5.47;1.67;;;;;;;18.48;55.02;101360.73;5160982;57;1138662;-71
2023/06/05 06:50:36;;;;;;;4.40;1.77;;;;;;;18.69;56.38;101353.78;5146422;57;1138599;-72
2023/06/05 06:55:42;;;;;;;9.60;4.67;;;;;;;18.95;52.38;101354.70;5147812;57;1138403;-67
2023/06/05 07:00:49;;;;;;;1.50;1.30;;;;;;;19.16;53.16;101358.92;5169985;57;1139420;-69
2023/06/05 07:05:54;;;;;;;2.77;1.43;;;;;;;19.38;52.97;101355.78;5152353;57;1138764;-69
2023/06/05 07:11:00;;;;;;;8.03;1.07;;;;;;;19.64;51.44;101355.83;5152300;57;1138643;-72
2023/06/05 07:16:05;;;;;;;1.50;1.40;;;;;;;19.94;48.71;101358.53;5172106;57;1138956;-73
2023/06/05 07:21:12;;;;;;;1.97;1.27;;;;;;;20.08;48.03;101345.84;5231566;56;1138633;-70
2023/06/05 07:26:18;;;;;;;10.38;1.42;;;;;;;20.29;45.16;101353.00;5238484;56;1138782;-70
2023/06/05 07:31:24;;;;;;;7.14;2.54;;;;;;;20.60;45.87;101355.16;5184838;56;1140962;-68
2023/06/05 07:36:30;;;;;;;3.77;0.78;;;;;;;20.79;45.16;101353.50;5172001;57;1138904;-76
2023/06/05 07:41:36;;;;;;;6.20;1.98;;;;;;;21.04;42.29;101357.09;5152258;57;1138668;-73
2023/06/05 07:46:46;;;;;;;1.70;0.82;;;;;;;21.26;43.71;101353.75;5152152;57;1138727;-73
2023/06/05 07:51:51;;;;;;;6.35;1.20;;;;;;;21.31;42.07;101358.64;5171622;57;1139144;-74
2023/06/05 07:56:58;;;;;;;3.05;1.12;;;;;;;21.38;42.97;101361.84;5152107;56;1138804;-71
2023/06/05 08:02:05;;;;;;;1.82;1.30;;;;;;;21.64;41.59;101356.77;5152151;57;1138903;-73
2023/06/05 08:07:10;;;;;;;8.00;5.60;;;;;;;21.93;42.44;101353.00;5172012;57;1138750;-69
2023/06/05 08:12:16;;;;;;;4.56;2.88;;;;;;;22.08;38.73;101347.77;5152155;57;1138422;-75
2023/06/05 08:17:23;;;;;;;2.25;1.30;;;;;;;22.28;36.07;101348.20;5152147;56;1138613;-71
2023/06/05 08:22:29;;;;;;;3.87;1.42;;;;;;;22.24;33.72;101346.86;5152536;57;1138860;-71
2023/06/05 08:27:35;;;;;;;1.75;1.50;;;;;;;22.28;35.93;101354.94;5238723;56;1138893;-72
2023/06/05 08:32:41;;;;;;;7.37;6.30;;;;;;;22.57;37.14;101355.13;5162941;56;1138607;-74
2023/06/05 08:37:46;;;;;;;9.78;2.65;;;;;;;22.70;32.97;101351.34;5152613;57;1138586;-72
2023/06/05 08:42:52;;;;;;;2.77;1.50;;;;;;;22.69;32.77;101345.63;5172447;57;1138866;-70
2023/06/05 08:48:01;;;;;;;3.05;2.10;;;;;;;22.70;34.64;101346.46;5152558;57;1138447;-71
2023/06/05 08:53:07;;;;;;;3.72;2.45;;;;;;;22.82;34.37;101353.66;5145685;56;1138489;-75
2023/06/05 08:58:15;;;;;;;1.65;1.55;;;;;;;22.99;32.03;101349.84;5161351;57;1138673;-72
2023/06/05 09:03:20;;;;;;;2.15;1.55;;;;;;;23.06;33.53;101342.72;5141436;57;1138808;-71
2023/06/05 09:08:34;;;;;;;4.27;1.57;;;;;;;23.13;32.93;101336.40;5141488;57;1138916;-79
2023/06/05 09:13:49;;;;;;;4.12;1.47;;;;;;;23.30;31.94;101343.02;5161204;56;1138655;-73
2023/06/05 09:18:57;;;;;;;4.92;3.52;;;;;;;23.30;32.38;101342.50;5141389;57;1138687;-74
2023/06/05 09:24:21;;;;;;;10.68;2.00;;;;;;;23.53;32.74;101337.63;5146142;56;1138329;-73
2023/06/05 09:29:32;;;;;;;4.65;1.40;;;;;;;23.68;32.19;101329.03;5227624;56;1140791;-69
2023/06/05 09:34:40;;;;;;;6.47;1.40;;;;;;;23.67;31.05;101334.10;5247902;56;1138929;-69
2023/06/05 09:39:49;;;;;;;97.67;5.20;;;;;;;23.75;29.12;101333.48;5227452;56;1138663;-70
2023/06/05 09:45:02;;;;;;;2.42;1.47;;;;;;;23.87;30.83;101326.27;5227368;56;1140754;-73
2023/06/05 09:50:12;;;;;;;6.42;1.90;;;;;;;24.12;30.58;101324.46;5190875;56;1139204;-68
2023/06/05 09:55:18;;;;;;;12.63;1.80;;;;;;;24.24;30.40;101328.06;5147489;57;1138474;-73
2023/06/05 10:00:24;;;;;;;8.25;1.62;;;;;;;24.36;33.19;101309.81;4986509;59;1140785;-77
2023/06/05 10:05:30;;;;;;;7.60;2.00;;;;;;;24.49;33.14;101305.06;5154022;56;1139113;-73
2023/06/05 10:10:37;;;;;;;3.30;1.45;;;;;;;24.49;30.16;101305.06;5172339;57;1138619;-72
2023/06/05 10:15:44;;;;;;;2.58;1.20;;;;;;;24.50;30.13;101302.69;5152168;57;1138412;-67
2023/06/05 10:20:50;;;;;;;5.35;1.05;;;;;;;24.40;30.98;101308.41;5152285;57;1138692;-74
2023/06/05 10:25:58;;;;;;;3.50;1.87;;;;;;;24.34;28.58;101290.23;5209800;56;1138689;-75
2023/06/05 10:31:25;;;;;;;1.60;1.50;;;;;;;24.29;29.66;101292.66;5238694;56;1138618;-72
2023/06/05 10:36:49;;;;;;;6.42;1.55;;;;;;;24.35;28.67;101289.72;5238647;56;1138699;-75
2023/06/05 10:41:55;;;;;;;2.58;1.40;;;;;;;24.57;29.49;101282.48;5238703;56;1138702;-73
2023/06/05 10:47:01;;;;;;;5.58;1.20;;;;;;;24.72;29.49;101277.86;5255954;56;1138759;-71
2023/06/05 10:52:06;;;;;;;6.83;1.32;;;;;;;24.92;29.21;101275.31;5151713;57;1138424;-74
2023/06/05 10:57:12;;;;;;;20.37;2.60;;;;;;;25.07;28.67;101269.34;5153049;57;1138614;-76
2023/06/05 11:02:22;;;;;;;7.58;1.40;;;;;;;25.29;29.50;101272.34;5161697;57;1141032;-74
2023/06/05 11:07:30;;;;;;;5.03;1.55;;;;;;;25.26;27.73;101259.20;5154329;56;1138784;-75
2023/06/05 11:12:46;;;;;;;21.40;2.57;;;;;;;25.38;31.05;101256.77;5154939;57;1138939;-70
2023/06/05 11:17:52;;;;;;;2.17;1.15;;;;;;;25.51;28.45;101256.89;5174195;57;1141039;-71
2023/06/05 11:23:02;;;;;;;2.42;1.12;;;;;;;25.61;29.47;101245.68;5154462;56;1138381;-73
2023/06/05 11:28:09;;;;;;;3.33;1.30;;;;;;;25.69;29.99;101249.08;5229424;56;1138979;-71
2023/06/05 11:33:25;;;;;;;6.90;1.60;;;;;;;25.88;26.81;101252.42;5261077;56;1138749;-70
2023/06/05 11:38:27;;;;;;;9.43;1.82;;;;;;;25.94;28.27;101238.59;5240309;56;1138619;-72
2023/06/05 11:43:33;;;;;;;7.75;1.22;;;;;;;26.13;27.84;101236.97;5241274;56;1138872;-73
2023/06/05 11:48:47;;;;;;;3.40;1.20;;;;;;;26.21;28.40;101234.09;5226684;56;1138684;-71
2023/06/05 11:53:53;;;;;;;4.67;1.30;;;;;;;26.26;27.05;101233.80;5175088;56;1138633;-71
2023/06/05 11:58:58;;;;;;;2.65;1.52;;;;;;;26.24;26.92;101223.68;5171234;56;1138424;-71
2023/06/05 12:04:09;;;;;;;2.95;2.75;;;;;;;26.39;26.53;101233.55;5258984;56;1138622;-71
2023/06/05 12:09:15;;;;;;;4.12;1.27;;;;;;;26.36;24.81;101229.37;5167767;56;1138509;-72
2023/06/05 12:14:35;;;;;;;3.35;1.45;;;;;;;26.29;26.80;101221.72;5152561;56;1138551;-73
2023/06/05 12:19:41;;;;;;;4.17;1.30;;;;;;;26.48;27.06;101216.86;5152589;56;1138699;-71
2023/06/05 12:24:46;;;;;;;3.27;1.57;;;;;;;26.62;25.02;101221.78;5189876;56;1138673;-72
2023/06/05 12:29:55;;;;;;;4.17;1.62;;;;;;;26.68;26.60;101216.06;5239091;56;1138754;-72
2023/06/05 12:35:01;;;;;;;3.05;1.40;;;;;;;26.66;25.81;101203.22;5239015;56;1138677;-70
2023/06/05 12:40:10;;;;;;;1.55;1.40;;;;;;;26.44;26.00;101203.91;5259308;56;1138944;-67
2023/06/05 12:45:17;;;;;;;3.90;1.42;;;;;;;26.50;25.63;101197.67;5238716;56;1139184;-71
2023/06/05 12:50:22;;;;;;;2.98;1.27;;;;;;;26.61;25.22;101192.98;5177846;56;1138485;-69
2023/06/05 12:55:28;;;;;;;6.97;1.30;;;;;;;26.70;25.79;101180.06;5130425;57;1138825;-70
2023/06/05 13:00:34;;;;;;;28.92;2.17;;;;;;;26.74;25.45;101182.64;5089258;57;1138932;-70
2023/06/05 13:05:39;;;;;;;4.12;1.55;;;;;;;26.77;27.74;101165.42;5087753;57;1140511;-69
2023/06/05 13:10:45;;;;;;;4.53;1.42;;;;;;;27.01;27.25;101171.30;5069603;58;1139104;-70
2023/06/05 13:15:51;;;;;;;2.65;1.42;;;;;;;27.14;25.48;101163.97;5131872;57;1138874;-70
2023/06/05 13:20:56;;;;;;;6.62;3.58;;;;;;;27.16;26.12;101165.12;5153304;57;1138350;-72
2023/06/05 13:26:04;;;;;;;48.73;5.83;;;;;;;27.20;25.10;101164.45;5153569;57;1138474;-71
2023/06/05 13:31:10;;;;;;;14.90;9.85;;;;;;;27.06;24.53;101162.81;5173368;57;1141051;-71
2023/06/05 13:36:16;;;;;;;1.82;1.72;;;;;;;26.90;24.98;101151.84;5153666;57;1140969;-71
2023/06/05 13:41:22;;;;;;;3.12;2.33;;;;;;;26.90;23.43;101149.13;5153302;57;1138735;-73
2023/06/05 13:46:28;;;;;;;3.25;1.87;;;;;;;26.87;24.78;101144.14;5153427;57;1138902;-74
2023/06/05 13:51:35;;;;;;;3.30;1.70;;;;;;;27.01;24.23;101142.80;5099372;57;1139140;-69
2023/06/05 13:56:40;;;;;;;6.65;1.25;;;;;;;26.95;24.37;101143.11;5102068;57;1138538;-70
2023/06/05 14:01:46;;;;;;;17.37;2.00;;;;;;;26.95;24.13;101139.03;5141065;57;1138683;-71
2023/06/05 14:06:53;;;;;;;9.35;1.70;;;;;;;27.00;24.98;101131.63;5191106;56;1141021;-75
2023/06/05 14:11:59;;;;;;;12.10;3.27;;;;;;;27.11;25.34;101109.23;5185109;56;1138873;-73
2023/06/05 14:17:04;;;;;;;5.85;2.40;;;;;;;27.15;24.17;101114.56;5121047;57;1140399;-68
2023/06/05 14:22:11;;;;;;;3.17;1.77;;;;;;;27.14;24.99;101115.61;5140700;57;1138609;-69
2023/06/05 14:27:18;;;;;;;3.22;1.82;;;;;;;27.20;24.59;101112.02;5134348;57;1138441;-72
2023/06/05 14:32:23;;;;;;;3.80;1.80;;;;;;;27.16;24.42;101110.80;5204751;56;1138459;-74
2023/06/05 14:37:29;;;;;;;2.37;1.70;;;;;;;27.16;25.55;101101.30;5184504;56;1139156;-70
2023/06/05 14:42:35;;;;;;;3.10;1.25;;;;;;;27.22;24.31;101101.26;5247134;56;1138896;-70
2023/06/05 14:47:40;;;;;;;1.23;1.23;;;;;;;27.15;25.08;101091.48;5223229;56;1138411;-69
2023/06/05 14:52:46;;;;;;;4.60;1.90;;;;;;;27.14;25.16;101089.29;5184623;56;1138591;-70
2023/06/05 14:57:52;;;;;;;9.63;1.67;;;;;;;27.35;26.01;101078.64;5160550;57;1138961;-74
2023/06/05 15:02:57;;;;;;;5.85;2.22;;;;;;;27.41;26.36;101089.18;5140694;57;1138593;-69
2023/06/05 15:08:05;;;;;;;4.28;3.15;;;;;;;27.52;25.76;101085.25;5158050;56;1138931;-71
2023/06/05 15:13:10;;;;;;;14.10;2.80;;;;;;;27.40;24.46;101085.63;5075923;58;1138974;-69
2023/06/05 15:18:16;;;;;;;22.50;2.10;;;;;;;27.19;25.58;101075.08;5227022;56;1140658;-70
2023/06/05 15:23:21;;;;;;;2.85;1.70;;;;;;;26.96;26.06;101076.38;5138854;57;1140570;-73
2023/06/05 15:28:27;;;;;;;1.25;1.12;;;;;;;26.95;25.14;101078.78;5226353;56;1138859;-76
2023/06/05 15:33:32;;;;;;;8.95;1.67;;;;;;;26.92;25.11;101079.17;5246375;56;1138930;-72
2023/06/05 15:38:38;;;;;;;4.25;1.65;;;;;;;26.99;24.93;101073.77;5226668;56;1138699;-71
2023/06/05 15:43:43;;;;;;;13.75;1.50;;;;;;;26.94;24.20;101068.97;5156548;56;1138427;-75
2023/06/05 15:48:49;;;;;;;14.70;11.28;;;;;;;27.00;24.61;101071.37;5212805;56;1140817;-72
2023/06/05 15:53:58;;;;;;;9.15;6.92;;;;;;;27.05;24.42;101055.77;5140621;57;1142949;-76
2023/06/05 15:59:04;;;;;;;4.45;1.65;;;;;;;27.10;24.73;101051.91;5140627;57;1138641;-77
2023/06/05 16:04:09;;;;;;;3.60;1.30;;;;;;;27.12;24.44;101064.22;5197134;56;1138939;-71
2023/06/05 16:09:15;;;;;;;10.32;1.90;;;;;;;27.10;25.16;101056.81;5056353;58;1138965;-72
2023/06/05 16:14:20;;;;;;;6.47;1.60;;;;;;;27.15;24.84;101052.11;5141006;56;1141005;-76
2023/06/05 16:19:26;;;;;;;11.60;2.00;;;;;;;26.99;24.55;101057.48;5141307;57;1139253;-72
2023/06/05 16:24:33;;;;;;;4.10;1.57;;;;;;;26.85;24.49;101051.75;5173946;56;1140712;-70
2023/06/05 16:29:38;;;;;;;7.50;2.50;;;;;;;26.73;24.42;101057.00;5226936;56;1138348;-72
2023/06/05 16:34:44;;;;;;;1.67;1.57;;;;;;;26.62;24.56;101053.55;5226940;56;1138798;-75
2023/06/05 16:39:50;;;;;;;3.70;1.92;;;;;;;26.54;24.58;101053.27;5246489;56;1138948;-75
2023/06/05 16:44:57;;;;;;;4.67;1.70;;;;;;;26.49;24.70;101054.41;5226985;56;1138908;-74
2023/06/05 16:50:03;;;;;;;136.60;11.30;;;;;;;26.50;25.02;101050.66;5227607;56;1138691;-71
2023/06/05 16:55:09;;;;;;;5.90;4.22;;;;;;;26.49;24.79;101050.86;5161013;57;1144855;-73
2023/06/05 17:00:17;;;;;;;17.87;14.25;;;;;;;26.39;24.79;101055.37;5141418;57;1138661;-73
2023/06/05 17:05:22;;;;;;;7.42;2.98;;;;;;;26.32;24.80;101050.97;5025760;58;1142591;-67
2023/06/05 17:10:28;;;;;;;3.80;2.27;;;;;;;26.31;25.17;101047.42;5141307;57;1139217;-70
2023/06/05 17:15:34;;;;;;;7.67;2.12;;;;;;;26.22;25.09;101043.23;5160983;57;1139029;-75
2023/06/05 17:20:39;;;;;;;7.72;3.37;;;;;;;26.08;25.60;101039.69;5141280;57;1138621;-72
2023/06/05 17:25:45;;;;;;;3.60;2.72;;;;;;;25.94;25.79;101035.30;5175398;56;1138439;-75
2023/06/05 17:30:51;;;;;;;9.18;2.80;;;;;;;25.85;26.15;101030.58;5247484;56;1139093;-76
2023/06/05 17:35:56;;;;;;;13.05;2.22;;;;;;;25.81;26.48;101035.29;5227342;56;1138467;-72
2023/06/05 17:41:02;;;;;;;15.28;2.17;;;;;;;25.73;26.82;101039.02;5227211;56;1140625;-72
2023/06/05 17:46:08;;;;;;;2.58;1.77;;;;;;;25.67;27.24;101039.81;5247363;56;1140978;-71
2023/06/05 17:51:13;;;;;;;5.60;1.87;;;;;;;25.54;26.82;101035.70;5208075;56;1138609;-74
2023/06/05 17:56:19;;;;;;;23.05;2.98;;;;;;;25.45;27.33;101035.06;5141218;57;1138680;-71
2023/06/05 18:01:24;;;;;;;18.80;2.90;;;;;;;25.35;27.76;101040.03;5148421;57;1140787;-72
2023/06/05 18:06:30;;;;;;;10.93;2.60;;;;;;;25.20;28.18;101038.83;5175341;57;1141086;-71
2023/06/05 18:11:36;;;;;;;13.03;2.45;;;;;;;25.05;28.38;101044.91;5154425;57;1140469;-76
2023/06/05 18:16:41;;;;;;;16.50;2.70;;;;;;;25.04;28.52;101035.12;5154544;57;1141221;-70
2023/06/05 18:21:47;;;;;;;16.73;2.52;;;;;;;24.99;29.04;101035.39;5174363;57;1140896;-75
2023/06/05 18:26:53;;;;;;;9.58;1.85;;;;;;;24.80;29.53;101040.45;5154321;57;1140701;-70
2023/06/05 18:31:58;;;;;;;9.15;2.05;;;;;;;24.80;29.53;101040.45;5154291;57;1138571;-74
2023/06/05 18:37:04;;;;;;;3.45;2.02;;;;;;;24.68;30.04;101042.56;5174275;56;1138915;-73
2023/06/05 18:42:10;;;;;;;40.83;3.55;;;;;;;24.53;30.49;101042.16;5154724;57;1138642;-71
2023/06/05 18:47:16;;;;;;;45.52;6.10;;;;;;;24.48;30.68;101043.26;5154398;57;1140803;-70
2023/06/05 18:52:22;;;;;;;29.10;3.25;;;;;;;24.38;32.67;101044.64;5162951;57;1141032;-72
2023/06/05 18:57:28;;;;;;;28.12;4.00;;;;;;;24.25;32.26;101048.08;5174168;57;1140905;-69
2023/06/05 19:02:33;;;;;;;16.67;3.77;;;;;;;24.20;32.54;101054.55;5156494;56;1140828;-71
2023/06/05 19:07:40;;;;;;;31.33;3.63;;;;;;;24.16;33.85;101051.39;5090347;57;1141948;-74
2023/06/05 19:12:47;;;;;;;36.65;7.72;;;;;;;24.13;33.96;101051.80;5261053;56;1140915;-71
2023/06/05 19:17:52;;;;;;;66.67;10.18;;;;;;;23.98;34.37;101055.09;5240896;56;1140817;-69
2023/06/05 19:22:58;;;;;;;17.00;5.15;;;;;;;23.80;35.06;101049.30;5240920;56;1142860;-71
2023/06/05 19:28:04;;;;;;;118.00;8.30;;;;;;;23.55;35.99;101054.72;5195859;56;1140840;-71
2023/06/05 19:33:09;;;;;;;161.22;11.48;;;;;;;23.38;37.54;101050.86;5226818;56;1142544;-73
2023/06/05 19:38:15;;;;;;;17.52;3.72;;;;;;;23.32;37.62;101056.20;5226731;56;1144595;-68
2023/06/05 19:43:23;;;;;;;18.58;3.48;;;;;;;23.21;38.19;101056.17;5217034;56;1141120;-71
2023/06/05 19:48:28;;;;;;;7.28;3.77;;;;;;;23.07;38.99;101052.44;5193980;56;1141005;-70
2023/06/05 19:53:34;;;;;;;10.08;3.75;;;;;;;22.95;39.67;101061.20;5183292;56;1138713;-68
2023/06/05 19:58:40;;;;;;;13.50;3.98;;;;;;;22.86;40.36;101060.47;5154363;56;1140830;-70
2023/06/05 20:03:45;;;;;;;16.15;5.40;;;;;;;22.77;40.82;101065.61;5196547;56;1140752;-69
2023/06/05 20:08:51;;;;;;;21.73;4.78;;;;;;;22.57;40.89;101065.30;5209267;56;1140908;-70
2023/06/05 20:13:57;;;;;;;15.25;6.85;;;;;;;22.37;41.66;101069.52;5233835;56;1140763;-73
2023/06/05 20:19:02;;;;;;;19.95;7.92;;;;;;;22.18;42.57;101065.47;5171857;56;1140981;-70
2023/06/05 20:24:08;;;;;;;15.55;4.97;;;;;;;22.07;43.25;101071.30;5165810;56;1140697;-72
2023/06/05 20:29:15;;;;;;;3.90;3.25;;;;;;;21.89;43.68;101067.52;5179391;56;1140945;-70
2023/06/05 20:34:22;;;;;;;7.54;3.10;;;;;;;21.86;44.65;101074.59;5204846;56;1138822;-73
2023/06/05 20:39:30;;;;;;;9.75;3.62;;;;;;;21.74;44.34;101075.52;5167227;56;1138901;-72
2023/06/05 20:44:38;;;;;;;16.93;7.33;;;;;;;21.58;44.04;101071.58;5152739;56;1138613;-71
2023/06/05 20:49:44;;;;;;;18.82;9.23;;;;;;;21.41;44.50;101077.55;5152646;56;1140588;-69
2023/06/05 20:54:49;;;;;;;27.98;11.70;;;;;;;21.30;44.89;101068.54;5172341;57;1140994;-71
2023/06/05 20:59:58;;;;;;;15.48;8.10;;;;;;;21.25;45.51;101072.25;5152246;57;1142796;-72
2023/06/05 21:05:05;;;;;;;14.35;5.35;;;;;;;21.19;47.05;101082.86;5207071;56;1140639;-73
2023/06/05 21:10:11;;;;;;;4.67;3.60;;;;;;;21.05;47.34;101074.50;4929117;60;1140990;-70
2023/06/05 21:15:17;;;;;;;7.80;3.90;;;;;;;20.90;48.13;101077.58;5069812;58;1138642;-71
2023/06/05 21:20:22;;;;;;;9.05;3.45;;;;;;;20.76;48.75;101075.60;5069971;58;1138592;-73
2023/06/05 21:25:28;;;;;;;11.08;3.16;;;;;;;20.67;49.05;101069.89;5099530;56;1139020;-72
2023/06/05 21:30:33;;;;;;;8.48;3.12;;;;;;;20.62;48.96;101074.96;5174441;57;1140875;-70
2023/06/05 21:35:39;;;;;;;4.58;3.45;;;;;;;20.57;48.69;101069.24;5154772;57;1138792;-72
2023/06/05 21:40:45;;;;;;;8.43;2.92;;;;;;;20.52;48.85;101076.47;5154712;57;1138616;-73
2023/06/05 21:45:50;;;;;;;5.40;3.27;;;;;;;20.43;48.38;101078.84;5174363;57;1139185;-73
2023/06/05 21:50:57;;;;;;;7.53;3.58;;;;;;;20.32;48.12;101081.81;5140751;57;1138964;-70
2023/06/05 21:56:02;;;;;;;10.05;2.98;;;;;;;20.21;48.27;101083.00;5070935;57;1138931;-70
2023/06/05 22:01:08;;;;;;;11.40;3.25;;;;;;;20.12;48.49;101079.98;5090240;57;1140672;-70
2023/06/05 22:06:14;;;;;;;10.65;2.62;;;;;;;20.00;48.52;101078.64;5133091;56;1140793;-69
2023/06/05 22:11:25;;;;;;;5.92;2.70;;;;;;;19.89;48.99;101082.47;5056609;58;1140942;-69
2023/06/05 22:16:41;;;;;;;4.45;2.52;;;;;;;19.62;49.90;101072.02;5140771;57;1138848;-72
2023/06/05 22:21:48;;;;;;;8.28;3.55;;;;;;;19.62;49.90;101072.02;5180515;56;1139115;-69
2023/06/05 22:26:54;;;;;;;7.90;3.00;;;;;;;19.58;50.09;101080.89;5056364;58;1138926;-67
2023/06/05 22:32:00;;;;;;;11.18;3.10;;;;;;;19.56;50.11;101075.34;5227183;56;1138411;-68
2023/06/05 22:37:07;;;;;;;8.73;3.12;;;;;;;19.46;49.90;101078.65;5247316;56;1140916;-73
2023/06/05 22:42:12;;;;;;;6.20;3.15;;;;;;;19.36;49.99;101076.61;5227166;56;1138710;-74
2023/06/05 22:47:18;;;;;;;6.10;3.00;;;;;;;19.25;50.14;101078.56;5227124;56;1138228;-73
2023/06/05 22:52:24;;;;;;;10.15;2.83;;;;;;;19.05;50.50;101071.80;5187901;56;1139185;-70
2023/06/05 22:57:31;;;;;;;4.00;2.90;;;;;;;19.01;51.17;101071.77;5160664;57;1141252;-74
2023/06/05 23:02:37;;;;;;;14.68;3.02;;;;;;;18.99;51.36;101083.14;5207993;56;1138982;-74
2023/06/05 23:07:42;;;;;;;5.17;2.55;;;;;;;18.93;51.72;101075.26;5182370;56;1141107;-73